createdAt,value
2022-12-11T00:04:27.792Z,101228.31
2022-12-11T00:09:29.773Z,101222.28
2022-12-11T00:14:32.006Z,101217.88
2022-12-11T00:19:34.157Z,101217.78
2022-12-11T00:24:37.919Z,101217.66
2022-12-11T00:29:39.618Z,101215.00
2022-12-11T00:34:41.364Z,101216.59
2022-12-11T00:39:43.152Z,101224.59
2022-12-11T00:44:44.955Z,101217.56
2022-12-11T00:49:50.128Z,101227.00
2022-12-11T00:54:52.040Z,101210.50
2022-12-11T00:59:55.794Z,101223.56
2022-12-11T01:05:01.994Z,101228.06
2022-12-11T01:10:23.599Z,101218.59
2022-12-11T01:15:30.195Z,101229.03
2022-12-11T01:20:32.433Z,101227.34
2022-12-11T01:25:35.955Z,101226.69
2022-12-11T01:30:41.868Z,101224.06
2022-12-11T01:35:45.806Z,101221.44
2022-12-11T01:40:54.479Z,101216.28
2022-12-11T01:45:58.811Z,101218.81
2022-12-11T01:51:03.368Z,101217.97
2022-12-11T01:56:08.815Z,101217.34
2022-12-11T02:01:17.249Z,101221.88
2022-12-11T02:06:42.067Z,101213.03
2022-12-11T02:11:58.279Z,101202.59
2022-12-11T02:17:06.720Z,101204.38
2022-12-11T02:22:12.119Z,101201.66
2022-12-11T02:27:21.740Z,101201.16
2022-12-11T02:32:32.222Z,101201.34
2022-12-11T02:37:38.291Z,101208.50
2022-12-11T02:42:44.454Z,101217.34
2022-12-11T02:47:48.563Z,101208.81
2022-12-11T02:52:52.468Z,101203.44
2022-12-11T02:58:05.817Z,101183.25
2022-12-11T03:03:09.681Z,101180.63
2022-12-11T03:08:11.545Z,101185.34
2022-12-11T03:13:19.561Z,101189.22
2022-12-11T03:18:49.580Z,101189.53
2022-12-11T03:24:04.884Z,101179.75
2022-12-11T03:29:16.632Z,101177.13
2022-12-11T03:34:22.673Z,101184.28
2022-12-11T03:39:32.315Z,101185.44
2022-12-11T03:44:47.314Z,101184.69
2022-12-11T03:49:50.511Z,101186.59
2022-12-11T03:54:58.234Z,101180.50
2022-12-11T04:00:01.022Z,101182.38
2022-12-11T04:05:13.640Z,101183.94
2022-12-11T04:10:17.658Z,101183.94
2022-12-11T04:15:32.622Z,101180.81
2022-12-11T04:20:54.642Z,101183.75
2022-12-11T04:26:13.799Z,101189.19
2022-12-11T04:31:18.510Z,101190.88
2022-12-11T04:36:25.533Z,101184.78
2022-12-11T04:41:32.005Z,101189.63
2022-12-11T04:46:34.280Z,101183.50
2022-12-11T04:51:40.561Z,101176.00
2022-12-11T04:56:42.508Z,101188.13
2022-12-11T05:01:46.872Z,101196.31
2022-12-11T05:06:52.614Z,101199.22
2022-12-11T05:11:57.449Z,101191.22
2022-12-11T05:17:01.531Z,101195.94
2022-12-11T05:22:05.516Z,101182.13
2022-12-11T05:27:07.251Z,101195.50
2022-12-11T05:32:08.933Z,101193.25
2022-12-11T05:37:10.669Z,101191.00
2022-12-11T05:42:14.733Z,101188.50
2022-12-11T05:47:20.365Z,101187.94
2022-12-11T05:52:25.573Z,101192.34
2022-12-11T05:57:27.236Z,101202.56
2022-12-11T06:02:33.587Z,101190.38
2022-12-11T06:07:36.432Z,101193.50
2022-12-11T06:12:38.152Z,101189.28
2022-12-11T06:17:39.821Z,101195.38
2022-12-11T06:22:46.006Z,101193.56
2022-12-11T06:27:47.830Z,101195.28
2022-12-11T06:32:51.952Z,101188.16
2022-12-11T06:38:16.760Z,101193.31
2022-12-11T06:43:24.013Z,101200.44
2022-12-11T06:48:39.012Z,101184.88
2022-12-11T06:53:41.556Z,101188.75
2022-12-11T06:58:44.103Z,101192.19
2022-12-11T07:03:46.156Z,101188.53
2022-12-11T07:08:50.346Z,101194.75
2022-12-11T07:13:56.676Z,101190.63
2022-12-11T07:19:00.770Z,101201.22
2022-12-11T07:24:02.850Z,101201.97
2022-12-11T07:29:04.565Z,101205.13
2022-12-11T07:34:11.270Z,101206.25
2022-12-11T07:39:13.284Z,101214.59
2022-12-11T07:44:15.641Z,101199.41
2022-12-11T07:49:20.435Z,101193.19
2022-12-11T07:54:24.643Z,101195.94
2022-12-11T07:59:31.283Z,101200.44
2022-12-11T08:04:38.657Z,101205.78
2022-12-11T08:09:45.509Z,101212.16
2022-12-11T08:14:50.242Z,101213.72
2022-12-11T08:19:52.616Z,101218.03
2022-12-11T08:24:54.534Z,101218.31
2022-12-11T08:29:59.888Z,101215.78
2022-12-11T08:35:04.499Z,101220.84
2022-12-11T08:40:11.106Z,101209.16
2022-12-11T08:45:16.446Z,101212.91
2022-12-11T08:50:18.632Z,101220.72
2022-12-11T08:55:22.007Z,101220.22
2022-12-11T09:00:24.502Z,101215.91
2022-12-11T09:05:28.876Z,101224.75
2022-12-11T09:10:33.137Z,101221.81
2022-12-11T09:15:40.531Z,101228.66
2022-12-11T09:20:44.731Z,101211.00
2022-12-11T09:25:48.080Z,101206.28
2022-12-11T09:30:50.491Z,101211.13
2022-12-11T09:36:02.957Z,101208.28
2022-12-11T09:41:36.762Z,101205.78
2022-12-11T09:46:39.783Z,101202.28
2022-12-11T09:51:50.782Z,101184.53
2022-12-11T09:57:02.903Z,101181.97
2022-12-11T10:02:23.308Z,101186.91
2022-12-11T10:07:38.786Z,101193.97
2022-12-11T10:13:11.233Z,101189.84
2022-12-11T10:18:17.216Z,101197.66
2022-12-11T10:23:25.072Z,101197.09
2022-12-11T10:28:30.172Z,101194.38
2022-12-11T10:34:01.586Z,101183.84
2022-12-11T10:39:19.802Z,101183.22
2022-12-11T10:44:31.271Z,101184.91
2022-12-11T10:49:35.187Z,101175.72
2022-12-11T10:54:42.758Z,101177.66
2022-12-11T10:59:49.813Z,101167.41
2022-12-11T11:04:52.056Z,101175.84
2022-12-11T11:10:11.107Z,101169.22
2022-12-11T11:15:14.500Z,101171.00
2022-12-11T11:20:29.609Z,101164.06
2022-12-11T11:25:35.383Z,101165.47
2022-12-11T11:30:41.577Z,101160.84
2022-12-11T11:35:57.536Z,101157.25
2022-12-11T11:41:21.592Z,101155.88
2022-12-11T11:46:28.226Z,101145.88
2022-12-11T11:52:11.911Z,101147.13
2022-12-11T11:57:51.033Z,101151.38
2022-12-11T12:03:21.183Z,101148.41
2022-12-11T12:08:44.191Z,101136.00
2022-12-11T12:13:53.650Z,101140.41
2022-12-11T12:19:16.403Z,101148.50
2022-12-11T12:24:18.143Z,101141.38
2022-12-11T12:29:53.857Z,101136.94
2022-12-11T12:35:05.297Z,101146.41
2022-12-11T12:40:35.122Z,101147.69
2022-12-11T12:45:56.103Z,101159.03
2022-12-11T12:51:02.030Z,101148.59
2022-12-11T12:56:06.572Z,101141.78
2022-12-11T13:01:12.367Z,101147.88
2022-12-11T13:06:17.186Z,101142.75
2022-12-11T13:11:21.601Z,101155.13
2022-12-11T13:16:53.282Z,101140.28
2022-12-11T13:22:14.834Z,101127.47
2022-12-11T13:27:27.245Z,101153.75
2022-12-11T13:32:34.100Z,101160.16
2022-12-11T13:37:41.749Z,101166.38
2022-12-11T13:42:53.728Z,101167.94
2022-12-11T13:48:02.415Z,101168.88
2022-12-11T13:53:07.587Z,101165.97
2022-12-11T13:58:20.693Z,101170.91
2022-12-11T14:03:25.252Z,101174.41
2022-12-11T14:08:37.432Z,101172.06
2022-12-11T14:13:44.310Z,101167.31
2022-12-11T14:18:52.549Z,101164.91
2022-12-11T14:23:58.949Z,101164.25
2022-12-11T14:29:01.604Z,101157.53
2022-12-11T14:34:16.438Z,101160.25
2022-12-11T14:39:38.196Z,101165.41
2022-12-11T14:45:07.356Z,101160.72
2022-12-11T14:50:22.225Z,101160.50
2022-12-11T14:55:31.112Z,101164.78
2022-12-11T15:00:39.920Z,101161.97
2022-12-11T15:05:54.300Z,101158.28
2022-12-11T15:11:14.475Z,101151.38
2022-12-11T15:16:19.146Z,101154.81
2022-12-11T15:21:31.706Z,101148.09
2022-12-11T15:26:33.507Z,101156.16
2022-12-11T15:31:37.913Z,101149.31
2022-12-11T15:36:42.227Z,101160.72
2022-12-11T15:41:48.839Z,101162.47
2022-12-11T15:46:51.092Z,101165.09
2022-12-11T15:51:54.603Z,101173.22
2022-12-11T15:56:57.897Z,101180.16
2022-12-11T16:02:00.290Z,101174.06
2022-12-11T16:07:04.715Z,101166.16
2022-12-11T16:12:10.917Z,101166.91
2022-12-11T16:17:19.666Z,101162.50
2022-12-11T16:22:25.664Z,101156.41
2022-12-11T16:27:27.599Z,101158.06
2022-12-11T16:32:29.683Z,101163.44
2022-12-11T16:37:36.179Z,101162.19
2022-12-11T16:42:39.251Z,101154.63
2022-12-11T16:47:41.418Z,101154.72
2022-12-11T16:52:44.311Z,101154.84
2022-12-11T16:57:47.144Z,101163.66
2022-12-11T17:02:49.153Z,101167.25
2022-12-11T17:07:50.932Z,101162.81
2022-12-11T17:12:55.197Z,101160.28
2022-12-11T17:17:59.360Z,101161.13
2022-12-11T17:23:01.456Z,101171.78
2022-12-11T17:28:06.511Z,101168.50
2022-12-11T17:33:08.973Z,101166.19
2022-12-11T17:38:11.252Z,101175.88
2022-12-11T17:43:16.053Z,101181.22
2022-12-11T17:48:19.796Z,101180.59
2022-12-11T17:53:23.741Z,101175.31
2022-12-11T17:58:25.580Z,101175.44
2022-12-11T18:03:28.376Z,101178.06
2022-12-11T18:08:30.292Z,101178.91
2022-12-11T18:13:38.684Z,101186.59
2022-12-11T18:18:41.149Z,101175.00
2022-12-11T18:23:43.464Z,101181.00
2022-12-11T18:28:47.112Z,101184.31
2022-12-11T18:33:51.462Z,101180.50
2022-12-11T18:38:55.855Z,101178.19
2022-12-11T18:44:04.015Z,101186.38
2022-12-11T18:49:12.884Z,101185.75
2022-12-11T18:54:20.777Z,101187.56
2022-12-11T18:59:26.760Z,101179.66
2022-12-11T19:04:31.912Z,101177.13
2022-12-11T19:09:38.847Z,101181.56
2022-12-11T19:14:44.895Z,101177.22
2022-12-11T19:19:47.536Z,101166.81
2022-12-11T19:24:49.679Z,101172.06
2022-12-11T19:29:51.835Z,101176.81
2022-12-11T19:34:54.545Z,101183.03
2022-12-11T19:39:56.454Z,101184.91
2022-12-11T19:44:59.621Z,101179.09
2022-12-11T19:50:02.017Z,101181.13
2022-12-11T19:55:08.200Z,101171.00
2022-12-11T20:00:10.869Z,101176.66
2022-12-11T20:05:20.194Z,101179.59
2022-12-11T20:10:24.552Z,101179.38
2022-12-11T20:15:27.634Z,101179.88
2022-12-11T20:20:29.949Z,101184.69
2022-12-11T20:25:32.442Z,101183.28
2022-12-11T20:30:37.430Z,101182.09
2022-12-11T20:35:40.674Z,101189.06
2022-12-11T20:40:46.528Z,101187.03
2022-12-11T20:45:49.710Z,101187.44
2022-12-11T20:50:58.245Z,101183.72
2022-12-11T20:56:02.391Z,101184.84
2022-12-11T21:01:04.790Z,101184.31
2022-12-11T21:06:09.214Z,101195.72
2022-12-11T21:11:11.057Z,101196.75
2022-12-11T21:16:18.133Z,101195.03
2022-12-11T21:21:19.934Z,101194.59
2022-12-11T21:26:23.244Z,101207.84
2022-12-11T21:31:25.569Z,101212.84
2022-12-11T21:36:33.875Z,101207.97
2022-12-11T21:41:35.886Z,101208.59
2022-12-11T21:46:42.843Z,101214.53
2022-12-11T21:51:47.511Z,101213.53
2022-12-11T21:56:49.549Z,101219.81
2022-12-11T22:01:54.081Z,101217.34
2022-12-11T22:06:56.025Z,101226.72
2022-12-11T22:12:00.179Z,101232.91
2022-12-11T22:17:02.025Z,101233.19
2022-12-11T22:22:05.592Z,101232.56
2022-12-11T22:27:07.521Z,101229.47
2022-12-11T22:32:11.747Z,101229.06
2022-12-11T22:37:16.809Z,101237.53
2022-12-11T22:42:20.661Z,101226.91
2022-12-11T22:47:23.555Z,101236.56
2022-12-11T22:52:27.796Z,101237.91
2022-12-11T22:57:31.961Z,101241.53
2022-12-11T23:02:39.340Z,101231.50
2022-12-11T23:07:41.491Z,101231.38
2022-12-11T23:12:44.343Z,101232.75
2022-12-11T23:17:51.529Z,101238.25
2022-12-11T23:22:56.332Z,101242.44
2022-12-11T23:28:05.089Z,101245.41
2022-12-11T23:33:11.143Z,101242.84
2022-12-11T23:38:13.277Z,101238.63
2022-12-11T23:43:15.233Z,101234.38
2022-12-11T23:48:17.225Z,101237.59
2022-12-11T23:53:21.556Z,101231.75
2022-12-11T23:58:23.323Z,101243.22
